createdAt,value
2018-07-10T07:04:08.934Z,20.73
2018-07-10T07:06:38.434Z,21.38
2018-07-10T07:09:08.202Z,22.03
2018-07-10T07:11:38.182Z,22.51
2018-07-10T07:14:07.857Z,22.49
2018-07-10T07:16:37.901Z,22.35
2018-07-10T07:19:07.571Z,22.14
2018-07-10T07:21:37.404Z,21.87
2018-07-10T07:24:07.327Z,21.52
2018-07-10T07:26:37.429Z,21.29
2018-07-10T07:29:07.035Z,21.09
2018-07-10T07:31:36.981Z,20.89
2018-07-10T07:34:06.435Z,20.70
2018-07-10T07:36:35.880Z,20.66
2018-07-10T07:39:06.972Z,20.57
2018-07-10T07:41:36.429Z,20.42
2018-07-10T07:44:06.165Z,20.21
2018-07-10T07:46:35.493Z,20.04
2018-07-10T07:49:04.946Z,19.95
2018-07-10T07:51:34.371Z,20.02
2018-07-10T07:54:04.178Z,20.11
2018-07-10T07:56:33.877Z,20.32
2018-07-10T07:59:03.608Z,20.39
2018-07-10T08:01:33.421Z,20.27
2018-07-10T08:04:03.183Z,20.15
2018-07-10T08:06:33.539Z,20.03
2018-07-10T08:09:04.700Z,20.02
2018-07-10T08:11:34.877Z,20.13
2018-07-10T08:14:05.089Z,19.89
2018-07-10T08:16:35.091Z,19.78
2018-07-10T08:19:05.981Z,19.78
2018-07-10T08:21:35.986Z,19.94
2018-07-10T08:24:05.935Z,20.06
2018-07-10T08:26:37.092Z,20.23
2018-07-10T08:29:06.695Z,20.26
2018-07-10T08:31:37.379Z,20.40
2018-07-10T08:34:07.257Z,20.76
2018-07-10T08:36:37.120Z,20.75
2018-07-10T08:39:06.843Z,20.77
2018-07-10T08:41:45.688Z,20.83
2018-07-10T08:44:17.485Z,20.97
2018-07-10T08:46:53.628Z,21.04
2018-07-10T08:49:28.946Z,21.21
2018-07-10T08:51:58.549Z,21.09
2018-07-10T08:54:28.123Z,20.98
2018-07-10T08:56:57.955Z,21.22
2018-07-10T08:59:27.863Z,21.32
2018-07-10T09:01:58.119Z,21.32
2018-07-10T09:04:28.149Z,21.40
2018-07-10T09:06:57.651Z,21.46
2018-07-10T09:09:27.252Z,21.38
2018-07-10T09:11:56.817Z,21.45
2018-07-10T09:14:26.993Z,21.51
2018-07-10T09:16:56.847Z,21.61
2018-07-10T09:19:29.887Z,21.59
2018-07-10T09:22:07.742Z,21.43
2018-07-10T09:24:47.246Z,21.46
2018-07-10T09:27:19.070Z,21.78
2018-07-10T09:29:49.383Z,22.15
2018-07-10T09:32:25.037Z,23.48
2018-07-10T09:34:56.359Z,25.02
2018-07-10T09:37:31.056Z,26.43
2018-07-10T09:40:05.581Z,26.98
2018-07-10T09:42:40.727Z,27.20
2018-07-10T09:45:10.299Z,26.68
2018-07-10T09:47:39.863Z,27.14
2018-07-10T09:50:09.651Z,27.68
2018-07-10T09:52:39.458Z,27.15
2018-07-10T09:55:09.192Z,27.68
2018-07-10T09:57:39.936Z,28.46
2018-07-10T10:00:09.868Z,28.39
2018-07-10T10:02:40.467Z,27.90
2018-07-10T10:05:10.134Z,27.33
2018-07-10T10:07:39.567Z,26.89
2018-07-10T10:10:09.397Z,26.63
2018-07-10T10:12:39.139Z,26.77
2018-07-10T10:15:08.771Z,26.88
2018-07-10T10:17:38.993Z,26.64
2018-07-10T10:20:08.689Z,26.28
2018-07-10T10:22:39.390Z,26.07
2018-07-10T10:25:09.305Z,26.14
2018-07-10T10:27:39.510Z,26.29
2018-07-10T10:30:09.434Z,26.09
2018-07-10T10:32:39.583Z,25.92
2018-07-10T10:35:09.255Z,25.96
2018-07-10T10:37:39.377Z,25.79
2018-07-10T10:40:09.055Z,25.76
2018-07-10T10:42:38.613Z,27.10
2018-07-10T10:45:09.260Z,27.02
2018-07-10T10:47:39.543Z,26.44
2018-07-10T10:50:09.610Z,25.95
2018-07-10T10:52:39.058Z,26.21
2018-07-10T10:55:08.634Z,27.26
2018-07-10T10:57:39.228Z,28.06
2018-07-10T11:00:08.825Z,29.53
2018-07-10T11:02:38.659Z,29.08
2018-07-10T11:05:09.334Z,27.69
2018-07-10T11:07:47.147Z,27.25
2018-07-10T11:10:18.564Z,26.76
2018-07-10T11:12:48.618Z,26.60
2018-07-10T11:15:18.452Z,25.74
2018-07-10T11:18:06.496Z,24.40
2018-07-10T11:20:48.327Z,24.12
2018-07-10T11:23:24.250Z,23.44
2018-07-10T11:25:54.080Z,23.07
2018-07-10T11:28:23.659Z,22.96
2018-07-10T11:30:53.132Z,23.00
2018-07-10T11:33:23.011Z,23.48
2018-07-10T11:35:52.581Z,23.67
2018-07-10T11:38:22.193Z,23.44
2018-07-10T11:40:52.155Z,23.27
2018-07-10T11:43:22.087Z,23.27
2018-07-10T11:45:52.020Z,23.23
2018-07-10T11:48:21.570Z,23.32
2018-07-10T11:50:51.113Z,23.25
2018-07-10T11:53:20.733Z,23.30
2018-07-10T11:55:50.268Z,23.50
2018-07-10T11:58:19.956Z,23.90
2018-07-10T12:00:49.518Z,24.33
2018-07-10T12:03:20.049Z,24.38
2018-07-10T12:05:49.809Z,24.77
2018-07-10T12:08:19.582Z,25.51
2018-07-10T12:11:11.879Z,25.81
2018-07-10T12:13:42.083Z,25.46
2018-07-10T12:16:12.009Z,25.92
2018-07-10T12:18:41.895Z,25.77
2018-07-10T12:21:17.174Z,25.19
2018-07-10T12:23:47.061Z,25.03
2018-07-10T12:26:17.561Z,25.87
2018-07-10T12:28:47.124Z,26.25
2018-07-10T12:31:16.931Z,25.76
2018-07-10T12:33:47.448Z,25.70
2018-07-10T12:36:17.050Z,26.11
2018-07-10T12:38:47.053Z,26.37
2018-07-10T12:41:17.594Z,26.10
2018-07-10T12:43:47.241Z,26.37
2018-07-10T12:46:16.741Z,25.84
2018-07-10T12:48:46.811Z,25.79
2018-07-10T12:51:16.648Z,27.52
2018-07-10T12:53:46.934Z,28.78
2018-07-10T12:56:17.776Z,29.23
2018-07-10T12:58:48.056Z,28.34
2018-07-10T13:01:18.946Z,28.38
2018-07-10T13:03:49.554Z,29.54
2018-07-10T13:06:20.422Z,30.93
2018-07-10T13:08:50.280Z,30.98
2018-07-10T13:11:21.037Z,28.55
2018-07-10T13:13:51.074Z,26.64
2018-07-10T13:16:20.761Z,24.96
2018-07-10T13:18:50.791Z,25.09
2018-07-10T13:21:20.403Z,25.64
2018-07-10T13:23:49.915Z,27.77
2018-07-10T13:26:20.537Z,29.42
2018-07-10T13:28:50.809Z,32.01
2018-07-10T13:31:20.430Z,34.55
2018-07-10T13:33:50.026Z,36.78
2018-07-10T13:36:19.556Z,36.61
2018-07-10T13:38:49.610Z,34.59
2018-07-10T13:41:19.138Z,34.25
2018-07-10T13:43:49.589Z,36.65
2018-07-10T13:46:19.145Z,35.66
2018-07-10T13:48:48.651Z,37.22
2018-07-10T13:51:19.733Z,35.24
2018-07-10T13:53:49.590Z,34.10
2018-07-10T13:56:19.420Z,35.25
2018-07-10T13:58:49.173Z,32.60
2018-07-10T14:01:18.803Z,31.18
2018-07-10T14:03:48.405Z,30.51
2018-07-10T14:06:18.731Z,31.54
2018-07-10T14:08:48.801Z,34.02
2018-07-10T14:11:18.436Z,35.48
2018-07-10T14:13:47.955Z,36.13
2018-07-10T14:16:22.411Z,35.96
2018-07-10T14:18:55.628Z,33.56
2018-07-10T14:21:26.242Z,33.42
2018-07-10T14:23:56.324Z,31.94
2018-07-10T14:26:26.237Z,32.49
2018-07-10T14:28:56.387Z,33.64
2018-07-10T14:31:26.463Z,33.74
2018-07-10T14:33:55.723Z,35.77
2018-07-10T14:36:26.521Z,37.09
2018-07-10T14:38:56.427Z,38.08
2018-07-10T14:41:28.008Z,39.04
2018-07-10T14:43:57.795Z,39.58
2018-07-10T14:46:27.709Z,39.62
2018-07-10T14:49:01.558Z,38.25
2018-07-10T14:51:41.873Z,39.03
2018-07-10T14:54:12.288Z,38.69
2018-07-10T14:56:42.752Z,38.87
2018-07-10T14:59:12.690Z,37.69
2018-07-10T15:01:42.885Z,37.57
2018-07-10T15:04:12.180Z,37.05
2018-07-10T15:06:41.761Z,37.87
2018-07-10T15:09:11.884Z,37.09
2018-07-10T15:11:43.016Z,35.45
2018-07-10T15:14:12.885Z,35.29
2018-07-10T15:16:47.667Z,34.43
2018-07-10T15:19:18.433Z,34.26
2018-07-10T15:21:48.050Z,34.16
2018-07-10T15:24:17.650Z,33.88
2018-07-10T15:26:47.793Z,33.62
2018-07-10T15:29:22.625Z,33.52
2018-07-10T15:31:52.498Z,33.16
2018-07-10T15:34:22.165Z,32.94
2018-07-10T15:36:52.313Z,32.79
2018-07-10T15:39:22.358Z,32.80
2018-07-10T15:41:52.646Z,33.53
2018-07-10T15:44:22.226Z,34.29
2018-07-10T15:46:52.372Z,34.48
2018-07-10T15:49:21.629Z,33.57
2018-07-10T15:51:51.719Z,32.20
2018-07-10T15:54:21.384Z,31.62
2018-07-10T15:56:51.371Z,30.81
2018-07-10T15:59:21.896Z,30.38
2018-07-10T16:01:51.485Z,30.14
2018-07-10T16:04:21.722Z,28.86
2018-07-10T16:06:51.646Z,28.13
2018-07-10T16:09:22.269Z,27.63
2018-07-10T16:11:59.720Z,27.71
2018-07-10T16:14:32.717Z,27.43
2018-07-10T16:17:09.872Z,27.69
2018-07-10T16:19:46.563Z,27.67
2018-07-10T16:22:24.073Z,27.49
2018-07-10T16:24:56.287Z,27.26
2018-07-10T16:27:58.965Z,26.76
2018-07-10T16:30:30.555Z,27.11
2018-07-10T16:33:01.785Z,28.14
2018-07-10T16:35:32.045Z,29.89
2018-07-10T16:38:03.647Z,30.01
2018-07-10T16:40:34.141Z,30.52
2018-07-10T16:43:09.736Z,30.34
2018-07-10T16:45:41.145Z,30.45
2018-07-10T16:49:29.768Z,29.72
2018-07-10T16:52:14.761Z,31.04
2018-07-10T16:54:44.489Z,31.35
2018-07-10T16:57:14.389Z,30.22
2018-07-10T16:59:45.717Z,28.92
2018-07-10T17:02:15.762Z,27.87
2018-07-10T17:04:47.448Z,27.10
2018-07-10T17:07:18.254Z,26.76
2018-07-10T17:09:48.908Z,26.55
2018-07-10T17:12:22.964Z,27.01
2018-07-10T17:14:56.516Z,26.84
2018-07-10T17:17:26.512Z,26.61
2018-07-10T17:19:58.248Z,27.12
2018-07-10T17:22:29.450Z,27.46
2018-07-10T17:24:59.651Z,27.44
2018-07-10T17:27:35.859Z,28.08
2018-07-10T17:30:06.634Z,29.09
2018-07-10T17:32:38.264Z,29.55
2018-07-10T17:35:09.263Z,29.20
2018-07-10T17:37:43.506Z,29.35
2018-07-10T17:40:14.503Z,28.63
2018-07-10T17:42:46.532Z,28.07
2018-07-10T17:45:23.068Z,28.87
2018-07-10T17:47:55.240Z,29.29
2018-07-10T17:50:25.541Z,29.21
2018-07-10T17:52:55.257Z,28.94
2018-07-10T17:55:25.991Z,29.28
2018-07-10T17:58:01.498Z,28.42
2018-07-10T18:00:32.255Z,27.20
2018-07-10T18:03:05.387Z,26.10
2018-07-10T18:05:35.324Z,25.48
2018-07-10T18:08:06.842Z,25.10
2018-07-10T18:10:36.452Z,24.58
2018-07-10T18:13:06.888Z,24.73
2018-07-10T18:15:38.045Z,25.38
2018-07-10T18:18:08.885Z,25.56
2018-07-10T18:20:39.129Z,26.04
2018-07-10T18:23:09.504Z,26.49
2018-07-10T18:25:39.517Z,27.10
2018-07-10T18:28:09.215Z,27.40
2018-07-10T18:30:39.487Z,27.48
2018-07-10T18:33:09.899Z,27.40
2018-07-10T18:35:40.734Z,27.21
2018-07-10T18:38:11.711Z,27.09
2018-07-10T18:40:41.693Z,27.13
2018-07-10T18:43:11.643Z,27.08
2018-07-10T18:45:42.497Z,26.78
2018-07-10T18:48:12.597Z,26.54
2018-07-10T18:50:44.009Z,26.46
2018-07-10T18:53:14.085Z,26.29
2018-07-10T18:55:44.069Z,26.02
2018-07-10T18:58:24.522Z,25.65
2018-07-10T19:01:07.647Z,25.12
2018-07-10T19:03:37.968Z,24.78
2018-07-10T19:06:13.071Z,24.24
2018-07-10T19:08:47.379Z,23.65
2018-07-10T19:11:24.257Z,23.19
2018-07-10T19:13:54.741Z,22.70
2018-07-10T19:16:24.725Z,22.37
2018-07-10T19:19:00.214Z,22.08
2018-07-10T19:21:34.375Z,21.84
2018-07-10T19:24:11.466Z,21.59
2018-07-10T19:26:41.469Z,21.41
2018-07-10T19:29:21.946Z,21.18
2018-07-10T19:31:54.095Z,21.10
2018-07-10T19:34:23.672Z,20.96
2018-07-10T19:36:53.512Z,20.74
2018-07-10T19:39:23.633Z,20.59
2018-07-10T19:41:53.967Z,20.47
2018-07-10T19:44:23.520Z,20.26
2018-07-10T19:46:53.159Z,20.05
2018-07-10T19:49:24.393Z,19.88
2018-07-10T19:51:53.943Z,19.78
2018-07-10T19:54:23.758Z,19.71
2018-07-10T19:56:54.044Z,19.61
2018-07-10T19:59:24.065Z,19.49
2018-07-10T20:01:58.593Z,19.36
2018-07-10T20:04:39.648Z,19.29
2018-07-10T20:07:44.306Z,19.21
2018-07-10T20:10:22.823Z,19.14
2018-07-10T20:12:59.370Z,19.15
2018-07-10T20:15:45.078Z,19.14
2018-07-10T20:18:45.144Z,19.06
2018-07-10T20:21:22.285Z,18.96
2018-07-10T20:24:34.775Z,18.89
2018-07-10T20:27:26.641Z,18.76
2018-07-10T20:32:08.189Z,18.65
2018-07-10T20:34:51.552Z,18.54
2018-07-10T20:37:28.154Z,18.46
2018-07-10T20:39:58.288Z,18.45
2018-07-10T20:42:35.103Z,18.39
2018-07-10T20:45:07.420Z,18.35
2018-07-10T20:47:55.037Z,18.29
2018-07-10T20:50:34.288Z,18.18
2018-07-10T20:53:16.582Z,18.04
2018-07-10T20:55:57.610Z,18.02
2018-07-10T20:58:36.171Z,18.02
2018-07-10T21:01:07.848Z,17.99
2018-07-10T21:03:50.450Z,17.93
2018-07-10T21:07:27.832Z,17.82
2018-07-10T21:10:20.103Z,17.74
2018-07-10T21:12:56.936Z,17.77
2018-07-10T21:15:37.031Z,17.79
2018-07-10T21:18:20.966Z,17.78
2018-07-10T21:21:20.137Z,17.80
2018-07-10T21:24:22.249Z,17.78
2018-07-10T21:27:12.854Z,17.83
2018-07-10T21:29:57.460Z,17.78
2018-07-10T21:32:40.785Z,17.79
2018-07-10T21:35:10.756Z,17.82
2018-07-10T21:37:57.883Z,17.83
2018-07-10T21:40:34.575Z,17.82
2018-07-10T21:44:26.296Z,17.74
2018-07-10T21:47:04.222Z,17.64
2018-07-10T21:49:55.771Z,17.56
2018-07-10T21:52:25.732Z,17.55
2018-07-10T21:54:55.571Z,17.53
2018-07-10T21:57:40.350Z,17.52
2018-07-10T22:00:09.862Z,17.50
2018-07-10T22:02:40.102Z,17.54
2018-07-10T22:05:09.676Z,17.50
2018-07-10T22:07:39.545Z,17.48
2018-07-10T22:10:09.412Z,17.57
2018-07-10T22:12:48.216Z,17.52
2018-07-10T22:15:18.115Z,17.56
2018-07-10T22:17:48.752Z,17.49
2018-07-10T22:20:18.636Z,17.53
2018-07-10T22:22:49.109Z,17.47
2018-07-10T22:25:18.611Z,17.46
2018-07-10T22:27:48.142Z,17.46
2018-07-10T22:30:23.075Z,17.45
2018-07-10T22:32:54.852Z,17.46
2018-07-10T22:35:25.083Z,17.46
2018-07-10T22:37:55.167Z,17.53
2018-07-10T22:40:24.779Z,17.46
2018-07-10T22:42:54.656Z,17.52
2018-07-10T22:45:24.240Z,17.56
2018-07-10T22:47:54.101Z,17.59
2018-07-10T22:50:24.607Z,17.63
2018-07-10T22:53:00.837Z,17.70
2018-07-10T22:55:33.012Z,17.68
2018-07-10T23:00:37.035Z,17.55
2018-07-10T23:03:16.406Z,17.46
2018-07-10T23:05:48.340Z,17.36
2018-07-10T23:08:21.513Z,17.35
2018-07-10T23:10:52.045Z,17.36
2018-07-10T23:13:21.884Z,17.48
2018-07-10T23:15:51.419Z,17.54
2018-07-10T23:18:21.372Z,17.56
2018-07-10T23:20:51.083Z,17.59
2018-07-10T23:23:21.420Z,17.68
2018-07-10T23:25:50.927Z,17.77
2018-07-10T23:28:22.035Z,17.74
2018-07-10T23:30:51.751Z,17.77
2018-07-10T23:33:24.983Z,17.78
2018-07-10T23:35:58.077Z,17.81
2018-07-10T23:39:11.581Z,17.82
2018-07-10T23:42:51.101Z,17.84
2018-07-10T23:45:26.866Z,17.80
2018-07-10T23:48:02.275Z,17.80
2018-07-10T23:50:32.991Z,17.80
2018-07-10T23:53:55.551Z,17.87
2018-07-10T23:56:25.021Z,17.82
2018-07-10T23:58:54.549Z,17.90
